Time;durP1;ratioP1;P1;durP2;ratioP2;P2;SDS_P1;SDS_P2;PMS_P1;PMS_P2;Temp;Humidity;BMP_temperature;BMP_pressure;BME280_temperature;BME280_humidity;BME280_pressure;Samples;Min_cycle;Max_cycle;Signal;HPM_P1;HPM_P2
2020/12/12 00:01:32;;;;;;;8.63;7.20;;;6.00;99.90;;;;;;5069733;28;20622;-58
2020/12/12 00:03:58;;;;;;;8.13;6.80;;;5.80;99.90;;;;;;5076235;28;20187;-57
2020/12/12 00:06:24;;;;;;;7.80;6.77;;;5.70;99.90;;;;;;5072608;28;20218;-57
2020/12/12 00:08:49;;;;;;;7.63;6.83;;;5.70;99.90;;;;;;5072908;28;20218;-58
2020/12/12 00:11:15;;;;;;;7.77;6.60;;;5.80;99.90;;;;;;5084702;28;20191;-57
2020/12/12 00:13:41;;;;;;;7.30;6.47;;;5.90;99.90;;;;;;5082439;28;20216;-56
2020/12/12 00:16:06;;;;;;;8.30;7.43;;;5.90;99.90;;;;;;5079036;28;20205;-56
2020/12/12 00:18:35;;;;;;;7.17;6.47;;;5.80;99.90;;;;;;5071873;28;20283;-58
2020/12/12 00:21:01;;;;;;;7.93;6.43;;;5.90;99.90;;;;;;5070052;28;20187;-58
2020/12/12 00:23:26;;;;;;;7.60;6.90;;;6.00;99.90;;;;;;5071041;28;20191;-57
2020/12/12 00:25:52;;;;;;;7.53;6.40;;;5.90;99.90;;;;;;5069953;28;20309;-57
2020/12/12 00:28:18;;;;;;;8.57;6.73;;;6.00;99.90;;;;;;5067447;28;20804;-56
2020/12/12 00:30:43;;;;;;;7.90;6.53;;;5.80;99.90;;;;;;5069636;28;20179;-57
2020/12/12 00:33:09;;;;;;;7.27;6.57;;;6.30;99.90;;;;;;5073422;28;20438;-58
2020/12/12 00:35:35;;;;;;;8.90;6.33;;;5.90;99.90;;;;;;5069325;28;20584;-57
2020/12/12 00:38:00;;;;;;;8.57;6.60;;;5.90;99.90;;;;;;5081019;28;20500;-57
2020/12/12 00:40:26;;;;;;;6.80;6.20;;;6.00;99.90;;;;;;5097812;28;20186;-56
2020/12/12 00:42:52;;;;;;;6.90;5.93;;;6.00;99.90;;;;;;5081448;28;20175;-56
2020/12/12 00:45:17;;;;;;;8.33;6.40;;;6.10;99.90;;;;;;5069402;28;20652;-57
2020/12/12 00:47:43;;;;;;;7.10;6.40;;;6.30;99.90;;;;;;5069034;28;20199;-58
2020/12/12 00:50:09;;;;;;;7.30;6.30;;;6.10;99.90;;;;;;5078452;28;20671;-57
2020/12/12 00:52:34;;;;;;;7.22;6.53;;;6.00;99.90;;;;;;5082963;28;20275;-58
2020/12/12 00:55:00;;;;;;;7.50;6.67;;;6.30;99.90;;;;;;5067604;28;20239;-56
2020/12/12 00:57:26;;;;;;;8.43;6.33;;;6.40;99.90;;;;;;5078060;28;20200;-57
2020/12/12 00:59:51;;;;;;;7.40;6.00;;;6.10;99.90;;;;;;5069308;28;20782;-57
2020/12/12 01:02:17;;;;;;;7.10;6.40;;;6.00;99.90;;;;;;5068980;28;20177;-58
2020/12/12 01:04:42;;;;;;;8.90;6.47;;;5.90;99.90;;;;;;5069395;28;20186;-57
2020/12/12 01:07:11;;;;;;;8.10;6.80;;;6.10;99.90;;;;;;5064519;28;20598;-56
2020/12/12 01:09:37;;;;;;;7.70;6.15;;;6.10;99.90;;;;;;5071094;28;20192;-58
2020/12/12 01:12:02;;;;;;;9.93;6.87;;;5.90;99.90;;;;;;5070776;28;20329;-57
2020/12/12 01:14:28;;;;;;;7.40;6.57;;;6.10;99.90;;;;;;5071764;28;20226;-57
2020/12/12 01:16:59;;;;;;;8.10;6.23;;;6.20;99.90;;;;;;5071930;28;20504;-57
2020/12/12 01:19:24;;;;;;;7.97;6.28;;;6.20;99.90;;;;;;5068853;28;20700;-56
2020/12/12 01:21:55;;;;;;;6.93;5.97;;;6.40;99.90;;;;;;5080697;28;20280;-58
2020/12/12 01:24:20;;;;;;;6.57;5.60;;;6.20;99.90;;;;;;5068779;28;20204;-58
2020/12/12 01:26:47;;;;;;;7.87;5.70;;;6.50;99.90;;;;;;5070071;28;20208;-56
2020/12/12 01:29:13;;;;;;;7.65;6.55;;;5.90;99.90;;;;;;5077211;28;20184;-54
2020/12/12 01:31:39;;;;;;;6.50;5.80;;;6.00;99.90;;;;;;5070579;28;20291;-56
2020/12/12 01:34:05;;;;;;;6.10;5.20;;;6.30;99.90;;;;;;5068978;28;20469;-56
2020/12/12 01:36:30;;;;;;;6.23;5.60;;;6.40;99.90;;;;;;5068042;28;20213;-56
2020/12/12 01:38:56;;;;;;;7.40;6.10;;;6.50;99.90;;;;;;5068467;28;20438;-56
2020/12/12 01:41:22;;;;;;;8.40;6.20;;;6.40;99.90;;;;;;5077784;28;20176;-57
2020/12/12 01:43:51;;;;;;;6.32;5.70;;;6.60;99.90;;;;;;5070112;28;20181;-55
2020/12/12 01:46:22;;;;;;;7.55;5.93;;;6.40;99.90;;;;;;5068658;28;20206;-57
2020/12/12 01:48:51;;;;;;;7.78;5.93;;;6.20;99.90;;;;;;5067877;28;20601;-57
2020/12/12 01:51:20;;;;;;;6.63;5.85;;;6.70;99.90;;;;;;5067517;28;20698;-56
2020/12/12 01:53:48;;;;;;;6.93;5.90;;;6.60;99.90;;;;;;5068412;28;20197;-58
2020/12/12 01:56:15;;;;;;;6.57;5.78;;;6.50;99.90;;;;;;5069190;28;20233;-58
2020/12/12 01:58:41;;;;;;;6.15;5.55;;;6.40;99.90;;;;;;5071906;28;20194;-58
2020/12/12 02:01:10;;;;;;;5.78;5.18;;;6.40;99.90;;;;;;5076713;28;20183;-57
2020/12/12 02:03:39;;;;;;;6.68;5.90;;;6.30;99.90;;;;;;5067848;28;20246;-58
2020/12/12 02:06:05;;;;;;;5.90;5.30;;;6.30;99.90;;;;;;5069968;28;20267;-59
2020/12/12 02:08:31;;;;;;;7.00;5.75;;;6.50;99.90;;;;;;5076966;28;20191;-57
2020/12/12 02:10:59;;;;;;;9.07;6.10;;;6.30;99.90;;;;;;5067984;28;20653;-57
2020/12/12 02:13:25;;;;;;;7.20;5.68;;;6.10;99.90;;;;;;5071917;28;20499;-56
2020/12/12 02:15:50;;;;;;;6.53;5.93;;;6.20;99.90;;;;;;5076612;28;20227;-59
2020/12/12 02:18:19;;;;;;;7.03;5.77;;;6.10;99.90;;;;;;5072876;28;20598;-58
2020/12/12 02:20:58;;;;;;;6.35;5.75;;;6.10;99.90;;;;;;5079435;28;20201;-59
2020/12/12 02:23:25;;;;;;;7.28;5.72;;;6.10;99.90;;;;;;5065708;28;20184;-56
2020/12/12 02:25:51;;;;;;;7.72;6.00;;;5.90;99.90;;;;;;5079146;28;20624;-57
2020/12/12 02:28:21;;;;;;;8.07;5.50;;;6.20;99.90;;;;;;5066672;28;20203;-57
2020/12/12 02:30:46;;;;;;;7.78;6.13;;;6.10;99.90;;;;;;5068800;28;20236;-56
2020/12/12 02:33:12;;;;;;;7.50;6.80;;;6.10;99.90;;;;;;5073918;28;20777;-58
2020/12/12 02:35:38;;;;;;;7.33;6.53;;;6.00;99.90;;;;;;5070683;28;20204;-58
2020/12/12 02:38:04;;;;;;;6.03;5.43;;;6.00;99.90;;;;;;5075980;28;20178;-60
2020/12/12 02:40:30;;;;;;;9.07;6.07;;;5.90;99.90;;;;;;5079551;28;20216;-57
2020/12/12 02:42:55;;;;;;;7.03;6.33;;;6.10;99.90;;;;;;5069604;28;20257;-56
2020/12/12 02:45:21;;;;;;;7.70;6.27;;;6.20;99.90;;;;;;5067527;28;20205;-56
2020/12/12 02:47:47;;;;;;;9.37;6.70;;;6.10;99.90;;;;;;5079401;28;20183;-56
2020/12/12 02:50:14;;;;;;;9.65;6.00;;;6.00;99.90;;;;;;5076024;28;20436;-58
2020/12/12 02:52:44;;;;;;;8.82;5.70;;;5.90;99.90;;;;;;5067802;28;20195;-58
2020/12/12 02:55:10;;;;;;;6.68;5.57;;;6.10;99.90;;;;;;5067458;28;20635;-57
2020/12/12 02:57:37;;;;;;;6.70;6.00;;;5.60;99.90;;;;;;5071722;28;20204;-56
2020/12/12 03:00:12;;;;;;;6.95;5.97;;;6.10;99.90;;;;;;5068089;28;20490;-58
2020/12/12 03:02:37;;;;;;;6.15;5.55;;;6.40;99.90;;;;;;5073639;28;20179;-58
2020/12/12 03:05:05;;;;;;;6.63;5.70;;;6.30;99.90;;;;;;5067604;28;20210;-58
2020/12/12 03:07:31;;;;;;;8.68;5.82;;;6.50;99.90;;;;;;5067215;28;20193;-56
2020/12/12 03:09:57;;;;;;;6.43;5.40;;;6.50;99.90;;;;;;5072154;28;20198;-57
2020/12/12 03:12:23;;;;;;;6.90;6.10;;;6.40;99.90;;;;;;5079535;28;20290;-58
2020/12/12 03:14:48;;;;;;;7.00;5.20;;;6.50;99.90;;;;;;5072999;28;20446;-56
2020/12/12 03:17:14;;;;;;;6.43;5.40;;;6.50;99.90;;;;;;5069268;28;20220;-58
2020/12/12 03:19:39;;;;;;;8.70;6.30;;;6.30;99.90;;;;;;5079016;28;20190;-57
2020/12/12 03:22:06;;;;;;;6.73;5.30;;;6.40;99.90;;;;;;5071826;28;20183;-58
2020/12/12 03:24:32;;;;;;;7.88;5.30;;;6.50;99.90;;;;;;5069979;28;20198;-58
2020/12/12 03:26:58;;;;;;;8.52;5.70;;;6.70;99.90;;;;;;5072738;28;20212;-58
2020/12/12 03:29:24;;;;;;;6.33;5.70;;;6.30;99.90;;;;;;5065641;28;20184;-58
2020/12/12 03:31:50;;;;;;;5.47;4.97;;;6.50;99.90;;;;;;5069737;28;20253;-59
2020/12/12 03:34:15;;;;;;;5.87;4.70;;;6.60;99.90;;;;;;5077874;28;20184;-58
2020/12/12 03:36:41;;;;;;;5.73;5.17;;;6.20;99.90;;;;;;5081677;28;20541;-57
2020/12/12 03:39:07;;;;;;;6.47;5.40;;;6.60;99.90;;;;;;5080000;28;20181;-58
2020/12/12 03:41:32;;;;;;;6.10;5.27;;;6.40;99.90;;;;;;5082934;28;20184;-59
2020/12/12 03:43:58;;;;;;;6.80;5.30;;;6.30;99.90;;;;;;5072615;28;20538;-59
2020/12/12 03:46:23;;;;;;;6.23;4.90;;;6.40;99.90;;;;;;5079003;28;20213;-58
2020/12/12 03:48:50;;;;;;;6.20;5.60;;;6.20;99.90;;;;;;5072132;28;20187;-56
2020/12/12 03:51:15;;;;;;;5.65;5.15;;;6.40;99.90;;;;;;5080083;28;20186;-57
2020/12/12 03:53:41;;;;;;;6.23;5.47;;;6.40;99.90;;;;;;5079758;28;20531;-56
2020/12/12 03:56:06;;;;;;;6.43;5.30;;;6.80;99.90;;;;;;5072773;28;20210;-58
2020/12/12 03:58:32;;;;;;;7.90;5.90;;;6.50;99.90;;;;;;5074910;28;20183;-58
2020/12/12 04:00:58;;;;;;;6.10;5.50;;;6.40;99.90;;;;;;5069983;28;20564;-58
2020/12/12 04:03:23;;;;;;;5.80;5.30;;;6.50;99.90;;;;;;5076864;28;20269;-58
2020/12/12 04:05:49;;;;;;;5.70;5.13;;;6.40;99.90;;;;;;5073601;28;20203;-56
2020/12/12 04:08:15;;;;;;;6.40;5.73;;;6.60;99.90;;;;;;5063329;28;20658;-57
2020/12/12 04:10:41;;;;;;;6.25;5.15;;;6.40;99.90;;;;;;5070119;28;20440;-56
2020/12/12 04:13:07;;;;;;;7.97;5.10;;;6.40;99.90;;;;;;5069945;28;20560;-57
2020/12/12 04:15:33;;;;;;;6.03;5.43;;;6.40;99.90;;;;;;5081772;28;20462;-56
2020/12/12 04:17:58;;;;;;;6.93;6.20;;;6.40;99.90;;;;;;5081163;28;20208;-57
2020/12/12 04:20:24;;;;;;;6.60;5.77;;;6.20;99.90;;;;;;5070665;28;20385;-58
2020/12/12 04:22:49;;;;;;;6.90;5.17;;;6.60;99.90;;;;;;5075202;28;20491;-56
2020/12/12 04:25:15;;;;;;;9.90;5.40;;;6.50;99.90;;;;;;5070807;28;20311;-58
2020/12/12 04:27:42;;;;;;;7.37;5.43;;;6.50;99.90;;;;;;5071400;28;20530;-57
2020/12/12 04:30:07;;;;;;;7.35;5.82;;;6.20;99.90;;;;;;5068868;28;20282;-56
2020/12/12 04:32:33;;;;;;;6.17;5.57;;;5.60;99.90;;;;;;5080130;28;20593;-58
2020/12/12 04:34:59;;;;;;;8.03;6.47;;;6.40;99.90;;;;;;5074140;28;20214;-57
2020/12/12 04:37:24;;;;;;;7.03;6.00;;;6.10;99.90;;;;;;5077802;28;20232;-59
2020/12/12 04:39:50;;;;;;;7.17;5.73;;;6.40;99.90;;;;;;5069413;28;20186;-58
2020/12/12 04:42:16;;;;;;;6.97;6.00;;;6.10;99.90;;;;;;5068768;28;20639;-57
2020/12/12 04:44:45;;;;;;;6.97;5.95;;;6.00;99.90;;;;;;5074125;28;20264;-58
2020/12/12 04:47:12;;;;;;;6.65;5.50;;;6.30;99.90;;;;;;5071553;28;20194;-58
2020/12/12 04:49:37;;;;;;;7.13;5.70;;;6.30;99.90;;;;;;5077241;28;20176;-58
2020/12/12 04:52:04;;;;;;;6.20;5.60;;;6.30;99.90;;;;;;5069541;28;20207;-58
2020/12/12 04:54:33;;;;;;;6.00;5.40;;;6.20;99.90;;;;;;5069287;28;20192;-56
2020/12/12 04:57:05;;;;;;;8.75;6.43;;;6.40;99.90;;;;;;5075154;28;20205;-57
2020/12/12 04:59:33;;;;;;;7.05;6.32;;;6.40;99.90;;;;;;5073998;28;20212;-58
2020/12/12 05:02:01;;;;;;;6.28;5.55;;;6.20;99.90;;;;;;5075143;28;20570;-57
2020/12/12 05:04:27;;;;;;;6.65;5.50;;;6.80;99.90;;;;;;5077041;28;20194;-57
2020/12/12 05:06:53;;;;;;;7.45;5.82;;;6.70;99.90;;;;;;5072122;28;20294;-57
2020/12/12 05:09:19;;;;;;;6.03;5.50;;;6.90;99.90;;;;;;5068655;28;20204;-57
2020/12/12 05:11:48;;;;;;;6.47;5.77;;;6.60;99.90;;;;;;5079506;28;20218;-58
2020/12/12 05:14:15;;;;;;;6.60;5.88;;;6.90;99.90;;;;;;5070860;28;20465;-58
2020/12/12 05:16:45;;;;;;;6.15;5.55;;;6.70;99.90;;;;;;5079865;28;20580;-58
2020/12/12 05:19:12;;;;;;;7.45;6.20;;;6.60;99.90;;;;;;5072253;28;20201;-57
2020/12/12 05:21:53;;;;;;;6.00;4.97;;;6.90;99.90;;;;;;5077150;28;20835;-58
2020/12/12 05:24:23;;;;;;;6.45;5.20;;;6.60;99.90;;;;;;5065522;28;20279;-57
2020/12/12 05:26:48;;;;;;;6.88;5.60;;;6.80;99.90;;;;;;5071449;28;20290;-59
2020/12/12 05:29:15;;;;;;;7.00;6.30;;;6.80;99.90;;;;;;5067167;28;20267;-58
2020/12/12 05:31:42;;;;;;;6.88;5.57;;;6.70;99.90;;;;;;5079931;28;20208;-58
2020/12/12 05:34:12;;;;;;;6.68;5.70;;;6.80;99.90;;;;;;5073829;28;20191;-57
2020/12/12 05:36:40;;;;;;;6.60;5.50;;;6.70;99.90;;;;;;5074317;28;20253;-57
2020/12/12 05:39:11;;;;;;;5.90;5.20;;;6.80;99.90;;;;;;5078917;28;20180;-57
2020/12/12 05:41:41;;;;;;;8.43;6.30;;;6.90;99.90;;;;;;5067602;28;20195;-57
2020/12/12 05:44:07;;;;;;;7.05;5.65;;;6.50;99.90;;;;;;5083601;28;20197;-56
2020/12/12 05:46:33;;;;;;;5.97;5.35;;;6.80;99.90;;;;;;5078726;28;20769;-56
2020/12/12 05:49:00;;;;;;;6.20;5.50;;;6.60;99.90;;;;;;5081578;28;20227;-57
2020/12/12 05:51:30;;;;;;;6.75;5.70;;;6.70;99.90;;;;;;5068793;28;20189;-55
2020/12/12 05:53:56;;;;;;;6.30;5.30;;;6.80;99.90;;;;;;5075550;28;20236;-57
2020/12/12 05:56:24;;;;;;;6.75;5.55;;;6.70;99.90;;;;;;5077283;28;20254;-56
2020/12/12 05:58:52;;;;;;;6.32;5.72;;;6.70;99.90;;;;;;5067569;28;20241;-55
2020/12/12 06:01:23;;;;;;;5.68;5.07;;;6.80;99.90;;;;;;5067707;28;20246;-55
2020/12/12 06:03:59;;;;;;;6.57;5.22;;;6.70;99.90;;;;;;5068578;28;20269;-56
2020/12/12 06:06:25;;;;;;;5.55;5.05;;;7.00;99.90;;;;;;5076716;28;20238;-58
2020/12/12 06:09:00;;;;;;;7.68;5.47;;;6.70;99.90;;;;;;5062433;28;20196;-56
2020/12/12 06:11:28;;;;;;;5.55;4.63;;;6.70;99.90;;;;;;5062975;28;20682;-58
2020/12/12 06:13:58;;;;;;;5.63;5.00;;;6.80;99.90;;;;;;5068343;28;20185;-55
2020/12/12 06:16:26;;;;;;;6.13;5.53;;;6.80;99.90;;;;;;5069075;28;20209;-57
2020/12/12 06:18:59;;;;;;;6.40;5.15;;;6.80;99.90;;;;;;5071047;28;20589;-56
2020/12/12 06:21:29;;;;;;;6.38;5.78;;;6.90;99.90;;;;;;5067197;28;20188;-55
2020/12/12 06:23:58;;;;;;;6.25;5.63;;;7.00;99.90;;;;;;5064637;28;20697;-55
2020/12/12 06:26:59;;;;;;;6.13;5.47;;;6.70;99.90;;;;;;5068419;28;20243;-55
2020/12/12 06:29:31;;;;;;;5.60;5.05;;;6.60;99.90;;;;;;5067536;28;20594;-55
2020/12/12 06:31:58;;;;;;;5.70;5.10;;;6.60;99.90;;;;;;5069493;28;20528;-56
2020/12/12 06:34:40;;;;;;;6.75;6.05;;;7.00;99.90;;;;;;5069022;28;20195;-55
2020/12/12 06:37:06;;;;;;;7.50;5.97;;;6.70;99.90;;;;;;5080987;28;20264;-55
2020/12/12 06:39:58;;;;;;;7.37;5.80;;;6.70;99.90;;;;;;5066202;28;20279;-57
2020/12/12 06:42:49;;;;;;;5.57;4.93;;;6.80;99.90;;;;;;5062749;28;21080;-57
2020/12/12 06:45:18;;;;;;;6.00;4.70;;;6.80;99.90;;;;;;5068328;28;20242;-56
2020/12/12 06:47:45;;;;;;;6.13;5.07;;;6.90;99.90;;;;;;5070450;28;20756;-57
2020/12/12 06:50:26;;;;;;;5.85;5.10;;;6.90;99.90;;;;;;5064907;28;20192;-59
2020/12/12 06:52:53;;;;;;;5.40;4.65;;;6.80;99.90;;;;;;5083386;28;20192;-56
2020/12/12 06:55:21;;;;;;;4.78;4.30;;;6.70;99.90;;;;;;5066020;28;20565;-56
2020/12/12 06:57:48;;;;;;;8.05;5.85;;;7.00;99.90;;;;;;5063333;28;20270;-56
2020/12/12 07:00:30;;;;;;;5.40;4.90;;;6.70;99.90;;;;;;5076615;28;20206;-57
2020/12/12 07:03:07;;;;;;;5.25;4.75;;;6.90;99.90;;;;;;5061696;28;20618;-56
2020/12/12 07:05:38;;;;;;;5.32;4.47;;;6.90;99.90;;;;;;5061807;28;20204;-56
2020/12/12 07:08:10;;;;;;;5.78;5.00;;;7.00;99.90;;;;;;5077817;28;20718;-57
2020/12/12 07:10:41;;;;;;;5.70;4.85;;;7.10;99.90;;;;;;5069011;28;20587;-55
2020/12/12 07:13:08;;;;;;;5.10;4.57;;;6.70;99.90;;;;;;5076100;28;20180;-56
2020/12/12 07:15:37;;;;;;;10.13;8.95;;;6.90;99.90;;;;;;5068375;28;20226;-57
2020/12/12 07:18:11;;;;;;;8.18;5.53;;;6.80;99.90;;;;;;5093773;28;20247;-55
2020/12/12 07:20:45;;;;;;;7.13;4.95;;;6.80;99.90;;;;;;5068146;28;20196;-56
2020/12/12 07:23:11;;;;;;;7.00;5.32;;;7.20;99.90;;;;;;5076413;28;20180;-56
2020/12/12 07:25:37;;;;;;;5.30;4.80;;;6.80;99.90;;;;;;5076180;28;20737;-56
2020/12/12 07:28:03;;;;;;;7.50;4.70;;;6.40;99.90;;;;;;5067091;28;20508;-56
2020/12/12 07:30:29;;;;;;;5.82;5.30;;;7.00;99.90;;;;;;5069872;28;20181;-56
2020/12/12 07:32:54;;;;;;;5.37;4.87;;;7.00;99.90;;;;;;5074847;28;20559;-56
2020/12/12 07:35:20;;;;;;;5.37;4.87;;;6.90;99.90;;;;;;5068688;28;20230;-57
2020/12/12 07:37:46;;;;;;;6.83;4.77;;;7.30;99.90;;;;;;5069002;28;20556;-55
2020/12/12 07:40:12;;;;;;;6.07;5.27;;;7.30;99.90;;;;;;5070259;28;20438;-56
2020/12/12 07:42:37;;;;;;;6.60;5.60;;;7.00;99.90;;;;;;5073434;28;20575;-56
2020/12/12 07:45:17;;;;;;;6.73;4.90;;;7.10;99.90;;;;;;5078781;28;20550;-57
2020/12/12 07:47:43;;;;;;;7.25;4.72;;;6.90;99.90;;;;;;5075028;28;20265;-56
2020/12/12 07:50:09;;;;;;;4.70;4.20;;;7.40;99.90;;;;;;5071812;28;20272;-55
2020/12/12 07:52:35;;;;;;;4.73;4.23;;;7.20;99.90;;;;;;5085896;28;20644;-57
2020/12/12 07:55:06;;;;;;;4.60;4.20;;;7.30;99.90;;;;;;5069187;28;20236;-55
2020/12/12 07:57:35;;;;;;;4.95;4.30;;;7.40;99.90;;;;;;5073525;28;20454;-56
2020/12/12 08:00:11;;;;;;;5.07;4.57;;;7.50;99.90;;;;;;5071990;28;20184;-55
2020/12/12 08:02:38;;;;;;;4.25;3.85;;;7.30;99.90;;;;;;5069196;28;20274;-57
2020/12/12 08:05:05;;;;;;;4.95;4.15;;;7.20;99.90;;;;;;5073257;28;20211;-55
2020/12/12 08:07:32;;;;;;;5.97;4.28;;;7.30;99.90;;;;;;5085403;28;20198;-55
2020/12/12 08:09:59;;;;;;;5.80;4.10;;;7.40;99.90;;;;;;5072425;28;20181;-56
2020/12/12 08:12:30;;;;;;;4.55;4.05;;;7.40;99.90;;;;;;5068501;28;20185;-55
2020/12/12 08:15:07;;;;;;;4.90;4.40;;;7.30;99.90;;;;;;5067561;28;20688;-56
2020/12/12 08:17:33;;;;;;;4.68;3.70;;;7.30;99.90;;;;;;5073310;28;20213;-56
2020/12/12 08:20:00;;;;;;;6.38;5.28;;;7.20;99.90;;;;;;5072200;28;20715;-57
2020/12/12 08:22:26;;;;;;;5.90;4.65;;;7.50;99.90;;;;;;5075083;28;20189;-55
2020/12/12 08:24:52;;;;;;;8.20;5.65;;;7.30;99.90;;;;;;5071010;28;20200;-56
2020/12/12 08:27:27;;;;;;;5.23;4.73;;;7.30;99.90;;;;;;5069659;28;20177;-57
2020/12/12 08:29:54;;;;;;;6.75;5.13;;;7.60;99.90;;;;;;5073103;28;20530;-56
2020/12/12 08:32:33;;;;;;;5.63;4.53;;;7.20;99.90;;;;;;5067667;28;20294;-56
2020/12/12 08:35:11;;;;;;;5.65;4.40;;;7.30;99.90;;;;;;5074180;28;20215;-57
2020/12/12 08:37:36;;;;;;;4.82;4.32;;;7.30;99.90;;;;;;5072292;28;20502;-56
2020/12/12 08:40:10;;;;;;;6.87;5.27;;;7.50;99.90;;;;;;5073305;28;20693;-57
2020/12/12 08:42:37;;;;;;;5.68;4.88;;;7.40;99.90;;;;;;5073587;28;20234;-58
2020/12/12 08:45:17;;;;;;;5.43;4.63;;;7.40;99.90;;;;;;5069929;28;20225;-57
2020/12/12 08:47:43;;;;;;;5.00;4.40;;;7.40;99.90;;;;;;5074590;28;20542;-58
2020/12/12 08:50:09;;;;;;;5.13;4.63;;;7.30;99.90;;;;;;5074940;28;20181;-56
2020/12/12 08:52:35;;;;;;;8.15;7.05;;;7.50;99.90;;;;;;5069863;28;20191;-56
2020/12/12 08:55:01;;;;;;;4.53;4.07;;;7.10;99.90;;;;;;5072747;28;20232;-57
2020/12/12 08:57:27;;;;;;;5.20;4.20;;;7.80;99.90;;;;;;5069233;28;20213;-57
2020/12/12 09:00:04;;;;;;;5.73;4.90;;;7.70;99.90;;;;;;5071485;28;20185;-57
2020/12/12 09:02:33;;;;;;;5.95;4.65;;;7.40;99.90;;;;;;5071293;28;21116;-57
2020/12/12 09:05:12;;;;;;;4.80;4.28;;;7.50;99.90;;;;;;5081362;28;20819;-56
2020/12/12 09:07:38;;;;;;;6.32;4.10;;;7.80;99.90;;;;;;5068968;28;20187;-56
2020/12/12 09:10:12;;;;;;;5.82;4.63;;;7.60;99.90;;;;;;5070997;28;20184;-56
2020/12/12 09:12:49;;;;;;;5.50;4.32;;;7.60;99.90;;;;;;5089315;28;20244;-58
2020/12/12 09:15:16;;;;;;;4.35;3.95;;;7.70;99.90;;;;;;5067288;28;20208;-57
2020/12/12 09:17:41;;;;;;;6.05;4.55;;;7.40;99.90;;;;;;5073814;28;20212;-57
2020/12/12 09:20:08;;;;;;;5.50;4.67;;;7.90;99.90;;;;;;5068639;28;20188;-56
2020/12/12 09:22:35;;;;;;;4.68;4.18;;;7.70;99.90;;;;;;5073122;28;20963;-56
2020/12/12 09:25:02;;;;;;;5.07;4.57;;;7.80;99.90;;;;;;5080663;28;20303;-55
2020/12/12 09:27:28;;;;;;;4.30;3.90;;;7.30;99.90;;;;;;5068149;28;20436;-56
2020/12/12 09:29:54;;;;;;;4.78;4.35;;;7.80;99.90;;;;;;5079571;28;20415;-56
2020/12/12 09:32:19;;;;;;;4.90;4.37;;;8.10;99.90;;;;;;5074057;28;20180;-56
2020/12/12 09:34:45;;;;;;;5.77;4.50;;;7.60;99.90;;;;;;5067738;28;20417;-56
2020/12/12 09:37:11;;;;;;;5.10;3.80;;;7.90;99.90;;;;;;5067814;28;20209;-56
2020/12/12 09:39:37;;;;;;;4.03;3.40;;;8.00;99.90;;;;;;5069771;28;20187;-57
2020/12/12 09:42:03;;;;;;;3.80;2.80;;;8.10;99.90;;;;;;5065486;28;20181;-57
2020/12/12 09:44:29;;;;;;;3.93;3.60;;;8.00;99.90;;;;;;5067554;28;20355;-57
2020/12/12 09:46:55;;;;;;;5.65;3.78;;;8.30;99.90;;;;;;5078868;28;20205;-58
2020/12/12 09:49:21;;;;;;;4.13;3.20;;;8.20;99.90;;;;;;5073378;28;20635;-59
2020/12/12 09:51:47;;;;;;;5.10;4.10;;;8.00;99.90;;;;;;5073525;28;20176;-59
2020/12/12 09:54:13;;;;;;;5.28;4.70;;;8.30;99.90;;;;;;5067618;28;20276;-59
2020/12/12 09:56:39;;;;;;;4.30;3.90;;;8.30;99.90;;;;;;5069928;28;20207;-57
2020/12/12 09:59:04;;;;;;;3.40;3.10;;;8.10;99.90;;;;;;5065331;28;20468;-57
2020/12/12 10:01:30;;;;;;;3.30;2.80;;;8.20;99.90;;;;;;5068529;28;20193;-57
2020/12/12 10:03:56;;;;;;;3.40;3.10;;;8.20;99.90;;;;;;5063534;28;20424;-58
2020/12/12 10:06:22;;;;;;;3.20;2.70;;;8.40;99.90;;;;;;5064989;28;20345;-57
2020/12/12 10:08:48;;;;;;;3.80;3.35;;;8.40;99.90;;;;;;5076074;28;20542;-57
2020/12/12 10:11:13;;;;;;;3.30;3.00;;;8.50;99.90;;;;;;5068509;28;20180;-58
2020/12/12 10:13:39;;;;;;;3.47;3.07;;;8.40;99.90;;;;;;5067039;28;20196;-58
2020/12/12 10:16:04;;;;;;;4.67;4.03;;;8.40;99.90;;;;;;5080891;28;20231;-57
2020/12/12 10:18:30;;;;;;;6.40;5.80;;;8.70;99.90;;;;;;5078776;28;20453;-57
2020/12/12 10:20:59;;;;;;;3.60;2.70;;;8.60;99.90;;;;;;5075440;28;20188;-57
2020/12/12 10:23:25;;;;;;;2.83;2.63;;;8.70;99.90;;;;;;5075741;28;20186;-57
2020/12/12 10:25:50;;;;;;;3.63;3.33;;;8.60;99.90;;;;;;5077938;28;20217;-57
2020/12/12 10:28:17;;;;;;;3.83;3.40;;;8.70;99.90;;;;;;5071742;28;20691;-60
2020/12/12 10:30:42;;;;;;;3.50;3.20;;;8.90;99.90;;;;;;5068672;28;20199;-59
2020/12/12 10:33:08;;;;;;;3.00;2.70;;;8.80;99.90;;;;;;5071763;28;20551;-62
2020/12/12 10:35:35;;;;;;;2.77;2.57;;;9.20;99.90;;;;;;5064395;28;20197;-59
2020/12/12 10:38:00;;;;;;;3.40;3.10;;;9.30;99.90;;;;;;5065407;28;20209;-67
2020/12/12 10:42:52;;;;;;;3.92;3.40;;;9.00;99.90;;;;;;5082044;28;20185;-61
2020/12/12 10:45:18;;;;;;;2.70;2.50;;;9.20;99.90;;;;;;5064893;28;20223;-60
2020/12/12 10:47:44;;;;;;;3.40;3.03;;;9.20;99.90;;;;;;5066415;28;20204;-60
2020/12/12 10:50:09;;;;;;;3.17;2.67;;;9.20;99.90;;;;;;5068036;28;21071;-60
2020/12/12 10:52:35;;;;;;;3.53;2.80;;;9.00;99.90;;;;;;5066982;28;20191;-60
2020/12/12 10:55:02;;;;;;;3.80;3.40;;;9.30;99.90;;;;;;5067154;28;20200;-61
2020/12/12 10:57:28;;;;;;;1.80;1.70;;;9.30;99.90;;;;;;5062691;28;20787;-59
2020/12/12 10:59:53;;;;;;;3.70;2.80;;;9.10;99.90;;;;;;5074546;28;20185;-60
2020/12/12 11:02:19;;;;;;;4.23;2.70;;;9.20;99.90;;;;;;5075268;28;20177;-59
2020/12/12 11:04:45;;;;;;;4.30;2.70;;;9.30;99.90;;;;;;5066724;28;20190;-61
2020/12/12 11:07:11;;;;;;;2.37;2.17;;;9.60;99.90;;;;;;5065064;28;20238;-59
2020/12/12 11:09:38;;;;;;;3.45;3.15;;;9.70;99.90;;;;;;5065728;28;20265;-58
2020/12/12 11:12:04;;;;;;;2.58;2.38;;;9.70;99.90;;;;;;5069198;28;20268;-58
2020/12/12 11:14:33;;;;;;;4.40;3.35;;;9.50;99.90;;;;;;5078931;28;20503;-60
2020/12/12 11:17:00;;;;;;;2.95;2.55;;;9.40;99.90;;;;;;5065792;28;20226;-58
2020/12/12 11:19:25;;;;;;;2.83;2.40;;;9.60;99.90;;;;;;5080303;28;20193;-58
2020/12/12 11:21:55;;;;;;;3.97;3.20;;;9.40;99.90;;;;;;5073677;28;20655;-60
2020/12/12 11:24:22;;;;;;;3.65;2.45;;;9.40;99.90;;;;;;5071896;28;20213;-61
2020/12/12 11:26:49;;;;;;;3.22;2.58;;;9.60;99.90;;;;;;5072896;28;20319;-58
2020/12/12 11:29:15;;;;;;;3.20;2.90;;;9.80;99.90;;;;;;5063359;28;20189;-58
2020/12/12 11:31:45;;;;;;;4.20;3.10;;;9.50;99.90;;;;;;5069300;28;20273;-59
2020/12/12 11:36:55;;;;;;;3.58;3.28;;;9.70;99.90;;;;;;5070008;28;20212;-58
2020/12/12 11:42:25;;;;;;;2.75;2.55;;;9.30;99.90;;;;;;5079117;28;20188;-58
2020/12/12 11:47:35;;;;;;;2.80;2.60;;;9.60;99.90;;;;;;5063991;28;20755;-61
2020/12/12 11:50:01;;;;;;;5.60;2.80;;;9.60;99.90;;;;;;5066745;28;20190;-59
2020/12/12 11:52:26;;;;;;;3.13;2.83;;;9.50;99.90;;;;;;5068151;28;20196;-61
2020/12/12 11:54:52;;;;;;;2.97;2.67;;;9.50;99.90;;;;;;5067601;28;20220;-60
2020/12/12 11:57:18;;;;;;;2.90;2.70;;;9.40;99.90;;;;;;5079062;28;20212;-61
2020/12/12 11:59:44;;;;;;;5.00;3.83;;;9.60;99.90;;;;;;5073750;28;20291;-63
2020/12/12 12:02:10;;;;;;;3.40;2.88;;;9.70;99.90;;;;;;5072582;28;20983;-61
2020/12/12 12:04:39;;;;;;;2.75;2.55;;;9.90;99.90;;;;;;5071904;28;20173;-61
2020/12/12 12:07:06;;;;;;;3.85;2.90;;;9.70;99.90;;;;;;5068815;28;20642;-62
2020/12/12 12:09:37;;;;;;;3.70;3.40;;;9.70;99.90;;;;;;5069921;28;20555;-61
2020/12/12 12:12:09;;;;;;;3.30;3.00;;;9.30;99.90;;;;;;5068780;28;20205;-63
2020/12/12 12:14:34;;;;;;;2.92;2.58;;;9.50;99.90;;;;;;5069234;28;20181;-63
2020/12/12 12:17:00;;;;;;;4.47;2.53;;;9.90;99.90;;;;;;5069261;28;20599;-63
2020/12/12 12:19:26;;;;;;;3.40;2.80;;;9.60;99.90;;;;;;5069277;28;20719;-63
2020/12/12 12:21:52;;;;;;;3.40;3.10;;;9.80;99.90;;;;;;5070337;28;20239;-60
2020/12/12 12:24:18;;;;;;;3.35;3.00;;;9.70;99.90;;;;;;5069353;28;20193;-60
2020/12/12 12:26:49;;;;;;;4.65;2.60;;;9.70;99.90;;;;;;5070127;28;20233;-62
2020/12/12 12:29:18;;;;;;;5.50;3.30;;;9.50;99.90;;;;;;5077312;28;20189;-61
2020/12/12 12:31:45;;;;;;;2.80;2.60;;;9.60;99.90;;;;;;5068428;28;20681;-60
2020/12/12 12:34:12;;;;;;;3.40;3.10;;;9.70;99.90;;;;;;5070880;28;20204;-60
2020/12/12 12:36:38;;;;;;;3.55;2.83;;;9.80;99.90;;;;;;5071794;28;20209;-63
2020/12/12 12:39:06;;;;;;;3.22;2.92;;;9.60;99.90;;;;;;5072043;28;20250;-60
2020/12/12 12:41:32;;;;;;;3.70;3.15;;;9.60;99.90;;;;;;5083411;28;20216;-61
2020/12/12 12:44:01;;;;;;;3.40;3.10;;;9.70;99.90;;;;;;5081091;28;20189;-61
2020/12/12 12:46:45;;;;;;;3.55;3.25;;;9.70;99.90;;;;;;5068720;28;20562;-59
2020/12/12 12:49:11;;;;;;;3.65;3.13;;;9.60;99.90;;;;;;5068427;28;20197;-60
2020/12/12 12:51:46;;;;;;;4.63;3.63;;;9.80;99.90;;;;;;5081608;28;20283;-62
2020/12/12 12:54:12;;;;;;;3.72;3.40;;;10.00;99.90;;;;;;5065170;28;20683;-62
2020/12/12 12:56:38;;;;;;;3.93;3.00;;;9.80;99.90;;;;;;5071961;28;20216;-61
2020/12/12 12:59:04;;;;;;;4.00;3.60;;;9.60;99.90;;;;;;5073496;28;20192;-60
2020/12/12 13:01:29;;;;;;;3.17;2.93;;;10.10;99.90;;;;;;5071062;28;20504;-62
2020/12/12 13:03:56;;;;;;;4.20;3.80;;;9.90;99.90;;;;;;5069735;28;20173;-61
2020/12/12 13:06:26;;;;;;;4.13;3.72;;;9.90;99.90;;;;;;5073981;28;20209;-58
2020/12/12 13:08:56;;;;;;;4.07;3.70;;;9.70;99.90;;;;;;5076728;28;20184;-60
2020/12/12 13:11:22;;;;;;;3.65;3.30;;;9.50;99.90;;;;;;5075011;28;20738;-63